Terminal Aerodrome Forecast
Issued by NWS

Home | Current Version | Previous Version | Text Only | Print | Product List | Glossary On
Versions: 1 2 3 4 5 6 7 8 9 10 11 12 13 14
158
FTUS44 KTSA 250520
TAFFYV
TAF
KFYV 250520Z 2506/2606 00000KT P6SM SKC
     FM250800 00000KT 4SM BR SKC
      TEMPO 2511/2513 2SM BR
     FM251400 22005KT P6SM SKC
     FM251900 18007KT P6SM SCT050
     FM260100 19003KT P6SM SKC=

USA.gov is the U.S. government's official web portal to all federal, state and local government web resources and services.